createdAt,value
2018-09-16T00:02:25.635Z,9.80
2018-09-16T00:04:54.367Z,9.70
2018-09-16T00:07:23.825Z,9.70
2018-09-16T00:09:53.372Z,9.70
2018-09-16T00:12:22.219Z,9.70
2018-09-16T00:14:51.149Z,9.60
2018-09-16T00:17:21.001Z,9.50
2018-09-16T00:19:50.487Z,9.40
2018-09-16T00:22:19.323Z,9.40
2018-09-16T00:24:48.745Z,9.40
2018-09-16T00:27:17.541Z,9.40
2018-09-16T00:29:46.325Z,9.50
2018-09-16T00:32:20.261Z,9.50
2018-09-16T00:34:49.300Z,9.60
2018-09-16T00:37:18.399Z,9.60
2018-09-16T00:39:47.266Z,9.50
2018-09-16T00:42:16.493Z,9.60
2018-09-16T00:44:46.212Z,9.50
2018-09-16T00:47:15.162Z,9.50
2018-09-16T00:49:44.099Z,9.40
2018-09-16T00:52:13.673Z,9.40
2018-09-16T00:54:42.572Z,9.40
2018-09-16T00:57:11.684Z,9.40
2018-09-16T00:59:40.424Z,9.40
2018-09-16T01:02:09.941Z,9.40
2018-09-16T01:04:39.632Z,9.40
2018-09-16T01:07:08.493Z,9.30
2018-09-16T01:09:37.508Z,9.30
2018-09-16T01:12:07.082Z,9.20
2018-09-16T01:14:36.678Z,9.10
2018-09-16T01:17:06.197Z,9.20
2018-09-16T01:19:35.780Z,9.10
2018-09-16T01:22:04.609Z,9.10
2018-09-16T01:24:34.406Z,9.10
2018-09-16T01:27:03.376Z,8.90
2018-09-16T01:29:32.264Z,8.80
2018-09-16T01:32:01.077Z,8.80
2018-09-16T01:34:30.046Z,8.90
2018-09-16T01:36:59.549Z,8.80
2018-09-16T01:39:29.243Z,8.70
2018-09-16T01:41:58.005Z,8.70
2018-09-16T01:44:27.097Z,8.70
2018-09-16T01:46:55.949Z,8.80
2018-09-16T01:49:25.333Z,8.80
2018-09-16T01:51:54.596Z,8.80
2018-09-16T01:54:23.615Z,8.80
2018-09-16T01:56:52.576Z,8.60
2018-09-16T01:59:21.617Z,8.60
2018-09-16T02:01:51.096Z,8.50
2018-09-16T02:04:19.901Z,8.60
2018-09-16T02:06:48.824Z,8.60
2018-09-16T02:09:17.769Z,8.60
2018-09-16T02:11:47.198Z,8.50
2018-09-16T02:14:16.033Z,8.50
2018-09-16T02:16:44.803Z,8.60
2018-09-16T02:19:14.093Z,8.40
2018-09-16T02:21:43.610Z,8.40
2018-09-16T02:24:13.150Z,8.40
2018-09-16T02:26:42.716Z,8.40
2018-09-16T02:29:12.205Z,8.40
2018-09-16T02:31:41.039Z,8.40
2018-09-16T02:34:10.505Z,8.40
2018-09-16T02:36:39.442Z,8.40
2018-09-16T02:39:08.917Z,8.50
2018-09-16T02:41:38.031Z,8.50
2018-09-16T02:44:07.570Z,8.50
2018-09-16T02:46:36.366Z,8.50
2018-09-16T02:49:05.275Z,8.40
2018-09-16T02:51:34.180Z,8.40
2018-09-16T02:54:03.679Z,8.30
2018-09-16T02:56:32.418Z,8.40
2018-09-16T02:59:01.944Z,8.30
2018-09-16T03:01:31.395Z,8.30
2018-09-16T03:04:00.229Z,8.20
2018-09-16T03:06:33.609Z,8.20
2018-09-16T03:09:03.407Z,8.20
2018-09-16T03:11:32.418Z,8.20
2018-09-16T03:14:01.608Z,8.20
2018-09-16T03:16:30.509Z,8.20
2018-09-16T03:19:00.231Z,8.10
2018-09-16T03:21:28.973Z,8.00
2018-09-16T03:23:58.441Z,8.00
2018-09-16T03:26:27.966Z,7.90
2018-09-16T03:28:57.453Z,7.90
2018-09-16T03:31:27.092Z,7.90
2018-09-16T03:33:56.427Z,7.90
2018-09-16T03:36:25.529Z,7.90
2018-09-16T03:38:54.462Z,7.90
2018-09-16T03:41:23.247Z,7.80
2018-09-16T03:43:52.050Z,7.80
2018-09-16T03:46:21.114Z,7.80
2018-09-16T03:48:50.048Z,7.70
2018-09-16T03:51:19.370Z,7.80
2018-09-16T03:53:49.068Z,7.70
2018-09-16T03:56:17.884Z,7.70
2018-09-16T03:58:46.698Z,7.70
2018-09-16T04:01:15.982Z,7.60
2018-09-16T04:03:45.081Z,7.60
2018-09-16T04:06:13.822Z,7.50
2018-09-16T04:08:42.753Z,7.50
2018-09-16T04:11:11.542Z,7.40
2018-09-16T04:13:40.509Z,7.30
2018-09-16T04:16:09.905Z,7.40
2018-09-16T04:18:38.659Z,7.40
2018-09-16T04:21:08.207Z,7.50
2018-09-16T04:23:51.653Z,7.40
2018-09-16T04:26:20.478Z,7.40
2018-09-16T04:28:50.409Z,7.40
2018-09-16T04:31:19.181Z,7.50
2018-09-16T04:33:48.045Z,7.40
2018-09-16T04:36:16.946Z,7.50
2018-09-16T04:38:45.782Z,7.50
2018-09-16T04:41:15.160Z,7.40
2018-09-16T04:43:44.640Z,7.40
2018-09-16T04:46:13.870Z,7.30
2018-09-16T04:48:42.762Z,7.30
2018-09-16T04:51:11.515Z,7.30
2018-09-16T04:53:40.276Z,7.30
2018-09-16T04:56:10.459Z,7.20
2018-09-16T04:58:40.044Z,7.30
2018-09-16T05:01:08.962Z,7.30
2018-09-16T05:03:37.947Z,7.30
2018-09-16T05:06:06.721Z,7.30
2018-09-16T05:08:35.563Z,7.20
2018-09-16T05:11:04.493Z,7.30
2018-09-16T05:13:33.285Z,7.40
2018-09-16T05:16:03.045Z,7.40
2018-09-16T05:18:50.297Z,7.50
2018-09-16T05:21:38.369Z,7.50
2018-09-16T05:24:23.309Z,7.50
2018-09-16T05:26:52.786Z,7.50
2018-09-16T05:29:21.540Z,7.40
2018-09-16T05:31:51.020Z,7.40
2018-09-16T05:34:20.369Z,7.50
2018-09-16T05:36:49.160Z,7.50
2018-09-16T05:39:18.701Z,7.60
2018-09-16T05:41:47.747Z,7.70
2018-09-16T05:44:22.320Z,7.80
2018-09-16T05:46:51.213Z,7.90
2018-09-16T05:55:23.817Z,8.10
2018-09-16T05:58:05.784Z,8.20
2018-09-16T06:00:34.859Z,8.30
2018-09-16T06:03:04.367Z,8.40
2018-09-16T06:05:33.933Z,8.50
2018-09-16T06:08:02.923Z,8.50
2018-09-16T06:10:32.408Z,8.50
2018-09-16T06:13:01.904Z,8.60
2018-09-16T06:15:31.521Z,8.60
2018-09-16T06:18:01.102Z,8.60
2018-09-16T06:20:30.797Z,8.60
2018-09-16T06:22:59.601Z,8.60
2018-09-16T06:25:28.601Z,8.70
2018-09-16T06:27:58.214Z,8.70
2018-09-16T06:30:27.551Z,8.80
2018-09-16T06:32:56.350Z,8.90
2018-09-16T06:35:26.619Z,8.90
2018-09-16T06:37:55.405Z,9.10
2018-09-16T06:40:24.389Z,9.20
2018-09-16T06:42:54.544Z,9.40
2018-09-16T06:45:24.257Z,9.50
2018-09-16T06:47:53.098Z,9.70
2018-09-16T06:50:22.088Z,9.80
2018-09-16T06:52:50.871Z,9.90
2018-09-16T06:55:20.595Z,10.00
2018-09-16T06:57:49.768Z,10.10
2018-09-16T07:00:19.232Z,10.20
2018-09-16T07:02:47.964Z,10.30
2018-09-16T07:05:17.061Z,10.40
2018-09-16T07:07:46.033Z,10.50
2018-09-16T07:10:14.837Z,10.70
2018-09-16T07:12:44.407Z,10.80
2018-09-16T07:15:13.999Z,11.20
2018-09-16T07:17:43.314Z,11.60
2018-09-16T07:20:12.963Z,12.20
2018-09-16T07:25:38.639Z,12.70
2018-09-16T07:28:07.452Z,12.80
2018-09-16T07:30:36.318Z,12.90
2018-09-16T07:33:05.125Z,13.00
2018-09-16T07:35:34.728Z,12.80
2018-09-16T07:38:04.216Z,12.90
2018-09-16T07:40:33.746Z,13.10
2018-09-16T07:43:03.192Z,13.10
2018-09-16T07:45:32.032Z,13.10
2018-09-16T07:48:00.873Z,13.20
2018-09-16T07:50:29.891Z,13.30
2018-09-16T07:52:59.497Z,13.30
2018-09-16T07:55:28.325Z,13.70
2018-09-16T07:57:57.197Z,14.10
2018-09-16T08:00:26.100Z,14.60
2018-09-16T08:02:55.092Z,16.50
2018-09-16T08:05:24.189Z,19.10
2018-09-16T08:07:53.838Z,21.70
2018-09-16T08:10:22.677Z,23.30
2018-09-16T08:12:51.546Z,24.50
2018-09-16T08:15:21.292Z,26.00
2018-09-16T08:17:50.440Z,26.90
2018-09-16T08:20:19.513Z,26.50
2018-09-16T08:22:49.173Z,25.50
2018-09-16T08:25:18.470Z,26.80
2018-09-16T08:27:47.279Z,27.30
2018-09-16T08:30:16.302Z,28.80
2018-09-16T08:32:45.035Z,29.20
2018-09-16T08:35:14.774Z,29.40
2018-09-16T08:37:45.220Z,29.30
2018-09-16T08:40:14.016Z,30.60
2018-09-16T08:42:43.688Z,31.20
2018-09-16T08:48:21.199Z,32.20
2018-09-16T08:50:50.047Z,31.80
2018-09-16T08:53:18.900Z,32.50
2018-09-16T08:55:48.408Z,33.50
2018-09-16T08:58:17.317Z,34.10
2018-09-16T09:00:46.281Z,34.30
2018-09-16T09:03:15.000Z,34.90
2018-09-16T09:05:44.473Z,34.20
2018-09-16T09:08:20.829Z,35.00
2018-09-16T09:10:49.759Z,35.60
2018-09-16T09:13:18.960Z,35.70
2018-09-16T09:15:48.751Z,36.10
2018-09-16T09:18:17.472Z,36.40
2018-09-16T09:20:46.821Z,36.40
2018-09-16T09:23:15.592Z,36.50
2018-09-16T09:25:44.403Z,36.90
2018-09-16T09:28:13.271Z,37.00
2018-09-16T09:30:42.606Z,37.30
2018-09-16T09:33:11.517Z,36.40
2018-09-16T09:35:41.050Z,36.30
2018-09-16T09:38:09.863Z,35.70
2018-09-16T09:40:38.894Z,35.60
2018-09-16T09:43:07.748Z,36.00
2018-09-16T09:45:37.400Z,36.60
2018-09-16T09:48:06.333Z,36.60
2018-09-16T09:50:35.274Z,36.70
2018-09-16T09:53:03.883Z,36.80
2018-09-16T09:55:33.308Z,36.60
2018-09-16T09:58:02.002Z,36.50
2018-09-16T10:00:50.165Z,36.70
2018-09-16T10:03:19.875Z,36.80
2018-09-16T10:05:49.460Z,36.60
2018-09-16T10:08:18.410Z,37.20
2018-09-16T10:10:47.311Z,37.10
2018-09-16T10:13:15.913Z,37.20
2018-09-16T10:15:44.681Z,37.50
2018-09-16T10:18:14.333Z,37.20
2018-09-16T10:20:43.550Z,36.30
2018-09-16T10:23:13.036Z,36.60
2018-09-16T10:25:51.788Z,36.90
2018-09-16T10:28:20.750Z,36.20
2018-09-16T10:30:49.530Z,36.50
2018-09-16T10:33:25.304Z,36.60
2018-09-16T10:35:54.576Z,37.00
2018-09-16T10:38:23.275Z,36.70
2018-09-16T10:40:53.765Z,36.70
2018-09-16T10:43:28.970Z,36.80
2018-09-16T10:45:58.716Z,36.70
2018-09-16T10:48:28.782Z,36.20
2018-09-16T10:51:14.591Z,35.70
2018-09-16T10:53:43.820Z,35.90
2018-09-16T10:56:12.645Z,36.30
2018-09-16T10:58:41.303Z,36.60
2018-09-16T11:01:19.642Z,36.70
2018-09-16T11:03:53.565Z,37.00
2018-09-16T11:06:23.404Z,36.30
2018-09-16T11:08:52.938Z,36.10
2018-09-16T11:11:25.868Z,36.00
2018-09-16T11:13:55.766Z,35.60
2018-09-16T11:16:24.552Z,35.70
2018-09-16T11:18:53.274Z,36.00
2018-09-16T11:21:22.137Z,35.70
2018-09-16T11:23:52.539Z,35.80
2018-09-16T11:26:21.511Z,36.10
2018-09-16T11:28:50.168Z,35.90
2018-09-16T11:31:19.121Z,35.70
2018-09-16T11:33:48.568Z,35.30
2018-09-16T11:36:17.898Z,35.10
2018-09-16T11:38:47.164Z,34.80
2018-09-16T11:41:15.952Z,34.60
2018-09-16T11:43:44.817Z,34.60
2018-09-16T11:46:13.424Z,34.60
2018-09-16T11:48:42.724Z,33.60
2018-09-16T11:51:11.481Z,33.80
2018-09-16T11:53:40.825Z,34.30
2018-09-16T11:56:10.354Z,35.00
2018-09-16T11:58:39.245Z,35.30
2018-09-16T12:01:08.080Z,35.40
2018-09-16T12:03:37.059Z,35.20
2018-09-16T12:06:06.651Z,35.30
2018-09-16T12:08:35.473Z,35.10
2018-09-16T12:11:04.276Z,35.00
2018-09-16T12:13:33.068Z,34.00
2018-09-16T12:16:03.115Z,34.30
2018-09-16T12:18:31.767Z,35.00
2018-09-16T12:21:00.597Z,35.70
2018-09-16T12:23:30.527Z,35.00
2018-09-16T12:26:21.477Z,34.50
2018-09-16T12:28:50.980Z,34.50
2018-09-16T12:31:20.777Z,35.00
2018-09-16T12:33:49.710Z,35.10
2018-09-16T12:39:13.868Z,34.80
2018-09-16T12:41:43.197Z,34.90
2018-09-16T12:44:15.550Z,34.90
2018-09-16T12:46:45.390Z,34.30
2018-09-16T12:49:14.643Z,34.50
2018-09-16T12:51:46.158Z,34.70
2018-09-16T12:54:15.623Z,34.00
2018-09-16T12:56:48.403Z,33.70
2018-09-16T12:59:17.403Z,33.30
2018-09-16T13:01:46.280Z,33.20
2018-09-16T13:04:15.044Z,33.20
2018-09-16T13:06:43.848Z,33.30
2018-09-16T13:09:12.813Z,33.30
2018-09-16T13:11:48.266Z,33.30
2018-09-16T13:14:17.128Z,33.20
2018-09-16T13:16:46.073Z,33.40
2018-09-16T13:19:15.196Z,33.40
2018-09-16T13:24:41.432Z,33.20
2018-09-16T13:27:10.292Z,33.50
2018-09-16T13:32:34.826Z,33.40
2018-09-16T13:35:04.135Z,33.80
2018-09-16T13:37:32.951Z,34.00
2018-09-16T13:40:06.015Z,33.90
2018-09-16T13:45:27.647Z,34.00
2018-09-16T13:48:16.067Z,34.20
2018-09-16T13:50:44.841Z,34.10
2018-09-16T13:53:14.268Z,33.50
2018-09-16T13:55:43.337Z,33.00
2018-09-16T13:58:12.235Z,32.00
2018-09-16T14:00:40.972Z,31.40
2018-09-16T14:03:09.772Z,30.90
2018-09-16T14:05:38.961Z,30.90
2018-09-16T14:08:26.480Z,31.00
2018-09-16T14:10:55.417Z,31.10
2018-09-16T14:13:24.243Z,31.20
2018-09-16T14:15:53.319Z,31.20
2018-09-16T14:18:22.305Z,31.30
2018-09-16T14:20:52.117Z,31.30
2018-09-16T14:23:21.042Z,31.50
2018-09-16T14:25:49.849Z,31.70
2018-09-16T14:28:18.589Z,32.20
2018-09-16T14:31:11.496Z,32.30
2018-09-16T14:33:40.235Z,32.10
2018-09-16T14:36:10.286Z,31.80
2018-09-16T14:38:39.265Z,31.60
2018-09-16T14:41:25.764Z,31.00
2018-09-16T14:43:54.653Z,30.30
2018-09-16T14:46:23.637Z,29.70
2018-09-16T14:48:53.176Z,29.40
2018-09-16T14:51:22.899Z,29.30
2018-09-16T14:54:02.874Z,29.50
2018-09-16T14:56:32.438Z,29.50
2018-09-16T14:59:01.982Z,29.40
2018-09-16T15:01:31.470Z,29.20
2018-09-16T15:04:00.203Z,28.90
2018-09-16T15:06:29.752Z,28.60
2018-09-16T15:08:58.636Z,28.20
2018-09-16T15:11:44.921Z,28.10
2018-09-16T15:14:13.895Z,27.70
2018-09-16T15:16:54.857Z,27.50
2018-09-16T15:19:28.090Z,27.40
2018-09-16T15:21:57.009Z,27.30
2018-09-16T15:24:25.828Z,27.20
2018-09-16T15:26:55.645Z,27.20
2018-09-16T15:29:24.575Z,27.00
2018-09-16T15:31:53.439Z,27.00
2018-09-16T15:34:23.061Z,26.90
2018-09-16T15:36:51.908Z,26.90
2018-09-16T15:39:20.776Z,26.80
2018-09-16T15:41:49.729Z,26.60
2018-09-16T15:44:19.309Z,26.50
2018-09-16T15:46:48.758Z,26.40
2018-09-16T15:49:17.550Z,26.40
2018-09-16T15:51:47.056Z,26.40
2018-09-16T15:54:15.879Z,26.30
2018-09-16T15:56:44.630Z,26.20
2018-09-16T15:59:31.068Z,26.00
2018-09-16T16:01:59.976Z,25.90
2018-09-16T16:04:29.305Z,25.70
2018-09-16T16:06:58.084Z,25.70
2018-09-16T16:09:27.005Z,25.60
2018-09-16T16:11:56.504Z,25.40
2018-09-16T16:14:25.471Z,25.20
2018-09-16T16:16:54.245Z,25.00
2018-09-16T16:19:23.141Z,24.80
2018-09-16T16:21:52.077Z,24.60
2018-09-16T16:24:21.182Z,24.40
2018-09-16T16:26:50.254Z,24.30
2018-09-16T16:29:19.738Z,24.20
2018-09-16T16:31:49.728Z,24.00
2018-09-16T16:34:18.773Z,23.80
2018-09-16T16:36:48.185Z,23.60
2018-09-16T16:39:17.936Z,23.40
2018-09-16T16:41:47.278Z,23.30
2018-09-16T16:44:16.073Z,23.00
2018-09-16T16:46:44.965Z,22.90
2018-09-16T16:49:13.817Z,22.70
2018-09-16T16:51:43.330Z,22.50
2018-09-16T16:54:12.225Z,22.20
2018-09-16T17:02:40.101Z,21.40
2018-09-16T17:05:09.049Z,21.20
2018-09-16T17:07:38.659Z,21.00
2018-09-16T17:10:07.596Z,20.80
2018-09-16T17:12:44.681Z,20.60
2018-09-16T17:15:14.321Z,20.40
2018-09-16T17:17:43.261Z,20.30
2018-09-16T17:20:12.221Z,20.10
2018-09-16T17:22:46.703Z,20.00
2018-09-16T17:25:26.901Z,19.80
2018-09-16T17:28:15.582Z,19.70
2018-09-16T17:30:44.570Z,19.60
2018-09-16T17:33:14.019Z,19.40
2018-09-16T17:35:42.943Z,19.20
2018-09-16T17:38:11.778Z,19.10
2018-09-16T17:40:40.778Z,18.90
2018-09-16T17:43:09.846Z,18.80
2018-09-16T17:45:38.828Z,18.70
2018-09-16T17:48:07.765Z,18.70
2018-09-16T17:50:36.668Z,18.60
2018-09-16T17:53:05.681Z,18.60
2018-09-16T17:55:35.924Z,18.50
2018-09-16T17:58:05.831Z,18.50
2018-09-16T18:00:36.305Z,18.50
2018-09-16T18:03:05.164Z,18.50
2018-09-16T18:05:34.464Z,18.40
2018-09-16T18:10:57.856Z,18.60
2018-09-16T18:13:27.459Z,18.60
2018-09-16T18:15:56.897Z,18.60
2018-09-16T18:18:26.562Z,18.70
2018-09-16T18:20:56.067Z,18.80
2018-09-16T18:23:25.758Z,18.90
2018-09-16T18:25:54.463Z,18.90
2018-09-16T18:28:23.408Z,18.90
2018-09-16T18:30:52.873Z,19.00
2018-09-16T18:33:21.823Z,19.10
2018-09-16T18:35:50.656Z,19.00
2018-09-16T18:38:19.506Z,18.90
2018-09-16T18:40:48.453Z,18.90
2018-09-16T18:43:17.337Z,18.80
2018-09-16T18:45:46.641Z,18.70
2018-09-16T18:48:16.184Z,18.50
2018-09-16T18:50:45.640Z,18.40
2018-09-16T18:53:15.037Z,18.40
2018-09-16T18:55:44.684Z,18.40
2018-09-16T18:58:13.471Z,18.30
2018-09-16T19:00:43.128Z,18.30
2018-09-16T19:03:12.615Z,18.20
2018-09-16T19:05:41.625Z,18.10
2018-09-16T19:08:10.617Z,18.10
2018-09-16T19:10:39.568Z,18.20
2018-09-16T19:13:09.581Z,18.40
2018-09-16T19:15:38.576Z,18.60
2018-09-16T19:18:07.965Z,18.90
2018-09-16T19:20:37.929Z,19.10
2018-09-16T19:23:06.921Z,19.20
2018-09-16T19:25:35.805Z,19.40
2018-09-16T19:28:04.648Z,19.60
2018-09-16T19:30:41.710Z,19.60
2018-09-16T19:33:10.840Z,19.60
2018-09-16T19:35:39.596Z,19.50
2018-09-16T19:38:09.232Z,19.50
2018-09-16T19:40:38.699Z,19.40
2018-09-16T19:43:08.356Z,19.40
2018-09-16T19:45:37.267Z,19.30
2018-09-16T19:48:06.257Z,19.20
2018-09-16T19:50:35.777Z,19.20
2018-09-16T19:53:05.217Z,19.00
2018-09-16T19:55:34.105Z,18.60
2018-09-16T19:58:02.959Z,18.30
2018-09-16T20:00:44.840Z,18.10
2018-09-16T20:03:14.499Z,17.90
2018-09-16T20:05:43.474Z,17.60
2018-09-16T20:08:12.361Z,17.50
2018-09-16T20:10:41.205Z,17.30
2018-09-16T20:13:09.975Z,17.10
2018-09-16T20:15:39.170Z,17.00
2018-09-16T20:18:08.144Z,16.80
2018-09-16T20:20:37.044Z,16.70
2018-09-16T20:23:09.313Z,16.60
2018-09-16T20:25:38.234Z,16.50
2018-09-16T20:28:07.466Z,16.40
2018-09-16T20:30:36.378Z,16.30
2018-09-16T20:33:05.594Z,16.30
2018-09-16T20:35:34.990Z,16.30
2018-09-16T20:38:03.964Z,16.20
2018-09-16T20:40:32.776Z,16.20
2018-09-16T20:43:01.756Z,16.20
2018-09-16T20:45:30.670Z,16.20
2018-09-16T20:48:00.227Z,16.20
2018-09-16T20:50:30.917Z,16.10
2018-09-16T20:53:00.378Z,16.00
2018-09-16T20:55:29.949Z,16.00
2018-09-16T20:57:59.521Z,15.90
2018-09-16T21:00:28.500Z,15.90
2018-09-16T21:02:57.438Z,15.80
2018-09-16T21:05:27.149Z,15.70
2018-09-16T21:07:56.648Z,15.70
2018-09-16T21:10:26.289Z,15.60
2018-09-16T21:12:55.691Z,15.60
2018-09-16T21:15:24.551Z,15.60
2018-09-16T21:17:53.316Z,15.60
2018-09-16T21:20:22.316Z,15.60
2018-09-16T21:22:51.974Z,15.50
2018-09-16T21:25:21.446Z,15.50
2018-09-16T21:27:51.190Z,15.50
2018-09-16T21:30:20.497Z,15.40
2018-09-16T21:32:49.688Z,15.40
2018-09-16T21:35:18.621Z,15.30
2018-09-16T21:37:47.426Z,15.30
2018-09-16T21:40:16.856Z,15.30
2018-09-16T21:42:45.636Z,15.30
2018-09-16T21:45:15.041Z,15.30
2018-09-16T21:47:44.517Z,15.20
2018-09-16T21:50:13.401Z,15.20
2018-09-16T21:52:42.440Z,15.20
2018-09-16T21:55:12.262Z,15.20
2018-09-16T21:57:41.271Z,15.20
2018-09-16T22:00:10.265Z,15.30
2018-09-16T22:02:39.072Z,15.20
2018-09-16T22:05:07.976Z,15.30
2018-09-16T22:07:36.907Z,15.20
2018-09-16T22:10:06.445Z,15.20
2018-09-16T22:12:35.275Z,15.10
2018-09-16T22:15:04.080Z,15.10
2018-09-16T22:17:33.013Z,15.10
2018-09-16T22:20:01.823Z,15.00
2018-09-16T22:22:31.433Z,14.90
2018-09-16T22:25:00.425Z,14.80
2018-09-16T22:27:29.353Z,14.70
2018-09-16T22:29:58.986Z,14.60
2018-09-16T22:32:28.366Z,14.40
2018-09-16T22:34:57.227Z,14.30
2018-09-16T22:37:26.547Z,14.10
2018-09-16T22:39:55.366Z,14.00
2018-09-16T22:42:24.820Z,14.00
2018-09-16T22:44:55.408Z,14.00
2018-09-16T22:47:24.733Z,13.90
2018-09-16T22:49:53.913Z,14.00
2018-09-16T22:52:22.773Z,13.90
2018-09-16T22:54:52.310Z,13.90
2018-09-16T22:57:21.221Z,13.80
2018-09-16T22:59:50.581Z,13.80
2018-09-16T23:02:20.193Z,13.90
2018-09-16T23:04:49.652Z,13.80
2018-09-16T23:07:20.177Z,13.80
2018-09-16T23:09:48.953Z,13.70
2018-09-16T23:12:17.753Z,13.70
2018-09-16T23:14:46.702Z,13.60
2018-09-16T23:17:15.504Z,13.40
2018-09-16T23:19:44.981Z,13.30
2018-09-16T23:22:14.608Z,13.30
2018-09-16T23:24:43.505Z,13.30
2018-09-16T23:27:12.252Z,13.20
2018-09-16T23:29:41.628Z,13.20
2018-09-16T23:32:10.537Z,13.20
2018-09-16T23:34:39.313Z,13.20
2018-09-16T23:37:08.152Z,13.20
2018-09-16T23:39:37.257Z,13.20
2018-09-16T23:42:06.066Z,13.10
2018-09-16T23:44:35.598Z,13.10
2018-09-16T23:47:04.976Z,13.20
2018-09-16T23:49:34.602Z,13.10
2018-09-16T23:52:03.544Z,13.20
2018-09-16T23:54:32.589Z,13.10
2018-09-16T23:57:02.162Z,13.10
2018-09-16T23:59:30.992Z,13.00
